sensor_id;sensor_type;location;lat;lon;timestamp;pressure;altitude;pressure_sealevel;temperature;humidity
38558;BME280;24333;42.626;23.308;2022-09-09T00:09:04;92545.56;;;15.82;100.00
38558;BME280;24333;42.626;23.308;2022-09-09T00:11:40;92516.16;;;15.68;100.00
38558;BME280;24333;42.626;23.308;2022-09-09T00:14:15;92516.94;;;15.72;100.00
38558;BME280;24333;42.626;23.308;2022-09-09T00:16:55;92509.09;;;15.67;100.00
38558;BME280;24333;42.626;23.308;2022-09-09T00:23:39;92539.25;;;15.89;100.00
38558;BME280;24333;42.626;23.308;2022-09-09T00:29:12;92511.75;;;15.85;100.00
38558;BME280;24333;42.626;23.308;2022-09-09T00:31:40;92480.81;;;15.67;100.00
38558;BME280;24333;42.626;23.308;2022-09-09T00:34:22;92489.09;;;15.63;100.00
38558;BME280;24333;42.626;23.308;2022-09-09T00:36:50;92503.50;;;15.85;100.00
38558;BME280;24333;42.626;23.308;2022-09-09T00:44:37;92483.88;;;15.83;100.00
38558;BME280;24333;42.626;23.308;2022-09-09T00:56:25;92463.09;;;15.79;100.00
38558;BME280;24333;42.626;23.308;2022-09-09T00:59:04;92485.84;;;15.86;100.00
38558;BME280;24333;42.626;23.308;2022-09-09T01:01:32;92493.69;;;15.92;100.00
38558;BME280;24333;42.626;23.308;2022-09-09T01:03:59;92488.22;;;15.84;100.00
38558;BME280;24333;42.626;23.308;2022-09-09T01:06:46;92491.34;;;15.86;100.00
38558;BME280;24333;42.626;23.308;2022-09-09T01:09:54;92462.38;;;15.64;100.00
38558;BME280;24333;42.626;23.308;2022-09-09T01:12:28;92452.63;;;15.59;100.00
38558;BME280;24333;42.626;23.308;2022-09-09T01:15:10;92485.50;;;15.73;100.00
38558;BME280;24333;42.626;23.308;2022-09-09T01:18:07;92485.19;;;15.64;100.00
38558;BME280;24333;42.626;23.308;2022-09-09T01:27:08;92498.88;;;15.68;100.00
38558;BME280;24333;42.626;23.308;2022-09-09T01:29:44;92474.22;;;15.53;100.00
38558;BME280;24333;42.626;23.308;2022-09-09T01:32:49;92491.06;;;15.63;100.00
38558;BME280;24333;42.626;23.308;2022-09-09T01:38:02;92479.00;;;15.42;100.00
38558;BME280;24333;42.626;23.308;2022-09-09T01:40:29;92505.22;;;15.57;100.00
38558;BME280;24333;42.626;23.308;2022-09-09T01:43:20;92508.34;;;15.59;100.00
38558;BME280;24333;42.626;23.308;2022-09-09T01:45:49;92487.25;;;15.42;100.00
38558;BME280;24333;42.626;23.308;2022-09-09T01:48:17;92508.38;;;15.52;100.00
38558;BME280;24333;42.626;23.308;2022-09-09T01:50:44;92513.88;;;15.52;100.00
38558;BME280;24333;42.626;23.308;2022-09-09T02:00:02;92511.13;;;15.56;100.00
38558;BME280;24333;42.626;23.308;2022-09-09T02:03:05;92512.28;;;15.62;100.00
38558;BME280;24333;42.626;23.308;2022-09-09T02:05:36;92509.50;;;15.66;100.00
38558;BME280;24333;42.626;23.308;2022-09-09T02:08:14;92503.22;;;15.61;100.00
38558;BME280;24333;42.626;23.308;2022-09-09T02:13:37;92507.16;;;15.64;100.00
38558;BME280;24333;42.626;23.308;2022-09-09T02:16:30;92506.38;;;15.64;100.00
38558;BME280;24333;42.626;23.308;2022-09-09T02:19:15;92500.88;;;15.64;100.00
38558;BME280;24333;42.626;23.308;2022-09-09T02:22:13;92493.03;;;15.62;100.00
38558;BME280;24333;42.626;23.308;2022-09-09T02:28:28;92479.34;;;15.51;100.00
38558;BME280;24333;42.626;23.308;2022-09-09T02:31:01;92487.22;;;15.49;100.00
38558;BME280;24333;42.626;23.308;2022-09-09T02:33:30;92455.47;;;15.33;100.00
38558;BME280;24333;42.626;23.308;2022-09-09T02:36:03;92490.75;;;15.46;100.00
38558;BME280;24333;42.626;23.308;2022-09-09T02:38:40;92466.06;;;15.31;100.00
38558;BME280;24333;42.626;23.308;2022-09-09T02:42:09;92499.00;;;15.46;100.00
38558;BME280;24333;42.626;23.308;2022-09-09T02:44:41;92486.09;;;15.32;100.00
38558;BME280;24333;42.626;23.308;2022-09-09T02:47:25;92488.06;;;15.24;100.00
38558;BME280;24333;42.626;23.308;2022-09-09T02:50:19;92516.66;;;15.38;100.00
38558;BME280;24333;42.626;23.308;2022-09-09T02:59:04;92479.47;;;15.11;100.00
38558;BME280;24333;42.626;23.308;2022-09-09T03:01:30;92480.66;;;15.10;100.00
38558;BME280;24333;42.626;23.308;2022-09-09T03:03:57;92492.81;;;15.16;100.00
38558;BME280;24333;42.626;23.308;2022-09-09T03:06:23;92503.41;;;15.22;100.00
38558;BME280;24333;42.626;23.308;2022-09-09T03:14:02;92492.84;;;15.02;100.00
38558;BME280;24333;42.626;23.308;2022-09-09T03:16:28;92522.25;;;15.16;100.00
38558;BME280;24333;42.626;23.308;2022-09-09T03:18:55;92506.19;;;15.07;100.00
38558;BME280;24333;42.626;23.308;2022-09-09T03:25:04;92509.34;;;15.06;100.00
38558;BME280;24333;42.626;23.308;2022-09-09T03:27:33;92506.59;;;14.98;100.00
38558;BME280;24333;42.626;23.308;2022-09-09T03:29:58;92504.25;;;14.97;100.00
38558;BME280;24333;42.626;23.308;2022-09-09T03:32:24;92515.63;;;14.92;100.00
38558;BME280;24333;42.626;23.308;2022-09-09T03:34:51;92516.41;;;14.92;100.00
38558;BME280;24333;42.626;23.308;2022-09-09T03:37:18;92499.97;;;14.88;100.00
38558;BME280;24333;42.626;23.308;2022-09-09T03:39:44;92507.00;;;14.93;100.00
38558;BME280;24333;42.626;23.308;2022-09-09T03:42:12;92508.16;;;14.92;100.00
38558;BME280;24333;42.626;23.308;2022-09-09T03:44:39;92507.81;;;14.86;100.00
38558;BME280;24333;42.626;23.308;2022-09-09T03:47:05;92507.00;;;14.86;100.00
38558;BME280;24333;42.626;23.308;2022-09-09T03:49:31;92496.81;;;14.83;100.00
38558;BME280;24333;42.626;23.308;2022-09-09T03:51:56;92502.28;;;14.90;100.00
38558;BME280;24333;42.626;23.308;2022-09-09T03:54:24;92507.41;;;14.92;100.00
38558;BME280;24333;42.626;23.308;2022-09-09T03:56:49;92507.00;;;14.82;100.00
38558;BME280;24333;42.626;23.308;2022-09-09T03:59:14;92518.00;;;14.86;100.00
38558;BME280;24333;42.626;23.308;2022-09-09T04:01:40;92514.47;;;14.82;100.00
38558;BME280;24333;42.626;23.308;2022-09-09T04:04:05;92516.41;;;14.81;100.00
38558;BME280;24333;42.626;23.308;2022-09-09T04:06:31;92521.94;;;14.78;100.00
38558;BME280;24333;42.626;23.308;2022-09-09T04:08:56;92521.50;;;14.79;100.00
38558;BME280;24333;42.626;23.308;2022-09-09T04:11:22;92508.97;;;14.78;100.00
38558;BME280;24333;42.626;23.308;2022-09-09T04:13:47;92510.13;;;14.84;100.00
38558;BME280;24333;42.626;23.308;2022-09-09T04:16:14;92510.13;;;14.95;100.00
38558;BME280;24333;42.626;23.308;2022-09-09T04:18:40;92516.78;;;15.01;100.00
38558;BME280;24333;42.626;23.308;2022-09-09T04:21:06;92497.97;;;15.03;100.00
38558;BME280;24333;42.626;23.308;2022-09-09T04:23:32;92497.94;;;15.11;100.00
38558;BME280;24333;42.626;23.308;2022-09-09T04:25:59;92512.03;;;15.20;100.00
38558;BME280;24333;42.626;23.308;2022-09-09T04:28:27;92500.66;;;15.18;100.00
38558;BME280;24333;42.626;23.308;2022-09-09T04:30:54;92508.88;;;15.25;100.00
38558;BME280;24333;42.626;23.308;2022-09-09T04:33:20;92513.94;;;15.30;100.00
38558;BME280;24333;42.626;23.308;2022-09-09T04:35:47;92510.81;;;15.28;100.00
38558;BME280;24333;42.626;23.308;2022-09-09T04:38:14;92518.25;;;15.39;100.00
38558;BME280;24333;42.626;23.308;2022-09-09T04:40:45;92528.03;;;15.47;100.00
38558;BME280;24333;42.626;23.308;2022-09-09T04:43:12;92527.25;;;15.46;100.00
38558;BME280;24333;42.626;23.308;2022-09-09T04:45:37;92535.44;;;15.54;100.00
38558;BME280;24333;42.626;23.308;2022-09-09T04:48:08;92534.28;;;15.55;100.00
38558;BME280;24333;42.626;23.308;2022-09-09T04:50:34;92528.38;;;15.56;100.00
38558;BME280;24333;42.626;23.308;2022-09-09T04:53:01;92509.09;;;15.64;100.00
38558;BME280;24333;42.626;23.308;2022-09-09T04:55:27;92499.31;;;15.63;100.00
38558;BME280;24333;42.626;23.308;2022-09-09T04:57:52;92493.38;;;15.75;100.00
38558;BME280;24333;42.626;23.308;2022-09-09T05:00:17;92499.19;;;15.88;100.00
38558;BME280;24333;42.626;23.308;2022-09-09T05:02:44;92493.28;;;15.93;100.00
38558;BME280;24333;42.626;23.308;2022-09-09T05:05:09;92488.13;;;16.02;100.00
38558;BME280;24333;42.626;23.308;2022-09-09T05:07:36;92488.00;;;16.17;100.00
38558;BME280;24333;42.626;23.308;2022-09-09T05:10:02;92481.69;;;16.24;100.00
38558;BME280;24333;42.626;23.308;2022-09-09T05:12:30;92489.00;;;16.41;100.00
38558;BME280;24333;42.626;23.308;2022-09-09T05:14:56;92486.59;;;16.51;100.00
38558;BME280;24333;42.626;23.308;2022-09-09T05:17:21;92482.59;;;16.55;100.00
38558;BME280;24333;42.626;23.308;2022-09-09T05:19:47;92502.59;;;16.67;100.00
38558;BME280;24333;42.626;23.308;2022-09-09T05:22:12;92498.16;;;16.76;100.00
38558;BME280;24333;42.626;23.308;2022-09-09T05:24:38;92486.84;;;16.67;100.00
38558;BME280;24333;42.626;23.308;2022-09-09T05:27:04;92487.91;;;16.81;100.00
38558;BME280;24333;42.626;23.308;2022-09-09T05:29:31;92486.66;;;16.85;100.00
38558;BME280;24333;42.626;23.308;2022-09-09T05:31:59;92484.22;;;16.95;100.00
38558;BME280;24333;42.626;23.308;2022-09-09T05:34:24;92483.69;;;17.11;100.00
38558;BME280;24333;42.626;23.308;2022-09-09T05:36:50;92497.06;;;17.12;100.00
38558;BME280;24333;42.626;23.308;2022-09-09T05:39:16;92493.50;;;17.12;100.00
38558;BME280;24333;42.626;23.308;2022-09-09T05:41:41;92494.28;;;17.16;100.00
38558;BME280;24333;42.626;23.308;2022-09-09T05:44:06;92491.19;;;17.10;100.00
38558;BME280;24333;42.626;23.308;2022-09-09T05:46:32;92495.91;;;17.10;100.00
38558;BME280;24333;42.626;23.308;2022-09-09T05:48:57;92505.66;;;17.18;100.00
38558;BME280;24333;42.626;23.308;2022-09-09T05:51:27;92515.03;;;17.24;100.00
38558;BME280;24333;42.626;23.308;2022-09-09T05:54:00;92500.59;;;17.13;100.00
38558;BME280;24333;42.626;23.308;2022-09-09T05:56:27;92503.66;;;17.22;100.00
38558;BME280;24333;42.626;23.308;2022-09-09T05:58:54;92507.09;;;17.30;100.00
38558;BME280;24333;42.626;23.308;2022-09-09T06:01:25;92499.25;;;17.28;100.00
38558;BME280;24333;42.626;23.308;2022-09-09T06:03:52;92513.88;;;17.22;100.00
38558;BME280;24333;42.626;23.308;2022-09-09T06:06:20;92515.41;;;17.26;100.00
38558;BME280;24333;42.626;23.308;2022-09-09T06:08:54;92525.53;;;17.37;100.00
38558;BME280;24333;42.626;23.308;2022-09-09T06:11:23;92537.38;;;17.33;100.00
38558;BME280;24333;42.626;23.308;2022-09-09T06:13:49;92537.81;;;17.28;100.00
38558;BME280;24333;42.626;23.308;2022-09-09T06:16:21;92533.50;;;17.27;100.00
38558;BME280;24333;42.626;23.308;2022-09-09T06:18:48;92525.19;;;17.31;100.00
38558;BME280;24333;42.626;23.308;2022-09-09T06:21:19;92532.94;;;17.43;100.00
38558;BME280;24333;42.626;23.308;2022-09-09T06:23:46;92524.31;;;17.41;100.00
38558;BME280;24333;42.626;23.308;2022-09-09T06:26:17;92527.34;;;17.51;100.00
38558;BME280;24333;42.626;23.308;2022-09-09T06:28:43;92527.75;;;17.49;100.00
38558;BME280;24333;42.626;23.308;2022-09-09T06:31:10;92531.19;;;17.60;100.00
38558;BME280;24333;42.626;23.308;2022-09-09T06:33:39;92525.56;;;17.68;100.00
38558;BME280;24333;42.626;23.308;2022-09-09T06:36:07;92520.84;;;17.68;100.00
38558;BME280;24333;42.626;23.308;2022-09-09T06:38:32;92521.16;;;17.74;100.00
38558;BME280;24333;42.626;23.308;2022-09-09T06:40:59;92519.50;;;17.80;100.00
38558;BME280;24333;42.626;23.308;2022-09-09T06:43:25;92515.00;;;17.94;100.00
38558;BME280;24333;42.626;23.308;2022-09-09T06:46:00;92522.00;;;18.02;100.00
38558;BME280;24333;42.626;23.308;2022-09-09T06:48:27;92527.53;;;18.02;100.00
38558;BME280;24333;42.626;23.308;2022-09-09T06:51:06;92542.50;;;18.04;100.00
38558;BME280;24333;42.626;23.308;2022-09-09T06:53:33;92527.31;;;18.16;100.00
38558;BME280;24333;42.626;23.308;2022-09-09T06:58:42;92537.97;;;18.45;100.00
38558;BME280;24333;42.626;23.308;2022-09-09T07:01:13;92540.75;;;18.69;100.00
38558;BME280;24333;42.626;23.308;2022-09-09T07:03:39;92543.41;;;18.76;100.00
38558;BME280;24333;42.626;23.308;2022-09-09T07:06:05;92545.31;;;18.79;100.00
38558;BME280;24333;42.626;23.308;2022-09-09T07:08:31;92540.22;;;18.78;100.00
38558;BME280;24333;42.626;23.308;2022-09-09T07:11:03;92547.19;;;18.86;100.00
38558;BME280;24333;42.626;23.308;2022-09-09T07:13:33;92540.41;;;18.91;100.00
38558;BME280;24333;42.626;23.308;2022-09-09T07:16:12;92528.16;;;18.92;100.00
38558;BME280;24333;42.626;23.308;2022-09-09T07:18:39;92545.06;;;18.98;100.00
38558;BME280;24333;42.626;23.308;2022-09-09T07:21:05;92549.25;;;19.06;100.00
38558;BME280;24333;42.626;23.308;2022-09-09T07:23:31;92539.41;;;19.05;100.00
38558;BME280;24333;42.626;23.308;2022-09-09T07:25:58;92543.13;;;19.18;100.00
38558;BME280;24333;42.626;23.308;2022-09-09T07:28:24;92536.31;;;19.23;100.00
38558;BME280;24333;42.626;23.308;2022-09-09T07:30:59;92532.72;;;19.26;100.00
38558;BME280;24333;42.626;23.308;2022-09-09T07:33:27;92536.22;;;19.30;100.00
38558;BME280;24333;42.626;23.308;2022-09-09T07:36:03;92542.09;;;19.32;100.00
38558;BME280;24333;42.626;23.308;2022-09-09T07:38:29;92535.00;;;19.31;100.00
38558;BME280;24333;42.626;23.308;2022-09-09T07:41:06;92542.53;;;19.51;100.00
38558;BME280;24333;42.626;23.308;2022-09-09T07:43:33;92545.97;;;19.79;100.00
38558;BME280;24333;42.626;23.308;2022-09-09T07:45:59;92542.44;;;19.99;100.00
38558;BME280;24333;42.626;23.308;2022-09-09T07:48:27;92543.97;;;20.20;100.00
38558;BME280;24333;42.626;23.308;2022-09-09T07:50:52;92557.41;;;20.38;99.59
38558;BME280;24333;42.626;23.308;2022-09-09T07:53:18;92557.78;;;20.57;96.31
38558;BME280;24333;42.626;23.308;2022-09-09T07:55:44;92544.50;;;20.85;96.24
38558;BME280;24333;42.626;23.308;2022-09-09T07:58:10;92553.50;;;20.72;93.35
38558;BME280;24333;42.626;23.308;2022-09-09T08:12:48;92540.50;;;21.19;87.12
38558;BME280;24333;42.626;23.308;2022-09-09T08:15:15;92542.94;;;21.17;91.26
38558;BME280;24333;42.626;23.308;2022-09-09T08:17:40;92545.34;;;21.31;89.71
38558;BME280;24333;42.626;23.308;2022-09-09T08:20:06;92542.03;;;21.36;85.79
38558;BME280;24333;42.626;23.308;2022-09-09T08:22:31;92552.66;;;21.55;87.69
38558;BME280;24333;42.626;23.308;2022-09-09T08:24:56;92547.44;;;21.57;85.14
38558;BME280;24333;42.626;23.308;2022-09-09T08:27:23;92551.97;;;21.67;83.87
38558;BME280;24333;42.626;23.308;2022-09-09T08:29:49;92546.91;;;21.78;85.99
38558;BME280;24333;42.626;23.308;2022-09-09T08:32:14;92546.03;;;21.81;83.32
38558;BME280;24333;42.626;23.308;2022-09-09T08:34:41;92545.19;;;21.98;82.18
38558;BME280;24333;42.626;23.308;2022-09-09T08:37:07;92541.13;;;22.41;81.55
38558;BME280;24333;42.626;23.308;2022-09-09T08:39:32;92550.63;;;22.57;77.28
38558;BME280;24333;42.626;23.308;2022-09-09T08:48:19;92546.69;;;22.15;77.92
38558;BME280;24333;42.626;23.308;2022-09-09T08:50:49;92533.56;;;22.16;78.45
38558;BME280;24333;42.626;23.308;2022-09-09T08:53:24;92546.47;;;22.35;78.70
38558;BME280;24333;42.626;23.308;2022-09-09T08:56:00;92552.38;;;22.37;78.37
38558;BME280;24333;42.626;23.308;2022-09-09T08:58:32;92535.41;;;22.48;78.89
38558;BME280;24333;42.626;23.308;2022-09-09T09:11:54;92547.50;;;23.06;73.39
38558;BME280;24333;42.626;23.308;2022-09-09T09:14:28;92555.25;;;23.37;71.90
38558;BME280;24333;42.626;23.308;2022-09-09T09:17:09;92547.25;;;23.27;70.57
38558;BME280;24333;42.626;23.308;2022-09-09T09:19:39;92551.47;;;23.31;70.75
38558;BME280;24333;42.626;23.308;2022-09-09T09:24:54;92549.63;;;23.02;69.68
38558;BME280;24333;42.626;23.308;2022-09-09T09:30:17;92547.06;;;23.91;68.49
38558;BME280;24333;42.626;23.308;2022-09-09T09:32:56;92552.69;;;24.23;66.66
38558;BME280;24333;42.626;23.308;2022-09-09T09:35:23;92551.66;;;24.30;63.23
38558;BME280;24333;42.626;23.308;2022-09-09T09:37:49;92538.94;;;23.84;62.82
38558;BME280;24333;42.626;23.308;2022-09-09T09:40:20;92547.03;;;23.69;64.07
38558;BME280;24333;42.626;23.308;2022-09-09T09:42:52;92543.56;;;23.65;65.83
38558;BME280;24333;42.626;23.308;2022-09-09T09:45:28;92535.00;;;23.94;64.78
38558;BME280;24333;42.626;23.308;2022-09-09T09:48:02;92528.84;;;24.00;62.67
38558;BME280;24333;42.626;23.308;2022-09-09T09:50:29;92519.19;;;24.36;65.12
38558;BME280;24333;42.626;23.308;2022-09-09T09:52:56;92533.41;;;24.69;61.40
38558;BME280;24333;42.626;23.308;2022-09-09T09:55:22;92535.13;;;24.67;57.95
38558;BME280;24333;42.626;23.308;2022-09-09T09:57:49;92521.97;;;24.36;56.71
38558;BME280;24333;42.626;23.308;2022-09-09T10:00:21;92518.72;;;24.69;59.92
38558;BME280;24333;42.626;23.308;2022-09-09T10:02:47;92525.63;;;24.87;56.60
38558;BME280;24333;42.626;23.308;2022-09-09T10:07:44;92526.28;;;24.68;54.03
38558;BME280;24333;42.626;23.308;2022-09-09T10:10:15;92527.22;;;24.65;55.45
38558;BME280;24333;42.626;23.308;2022-09-09T10:15:48;92532.63;;;24.91;56.75
38558;BME280;24333;42.626;23.308;2022-09-09T10:27:01;92539.34;;;23.95;58.78
38558;BME280;24333;42.626;23.308;2022-09-09T10:29:33;92544.28;;;24.14;61.30
38558;BME280;24333;42.626;23.308;2022-09-09T10:32:10;92535.06;;;24.26;60.90
38558;BME280;24333;42.626;23.308;2022-09-09T10:34:55;92542.13;;;24.40;62.47
38558;BME280;24333;42.626;23.308;2022-09-09T10:40:21;92541.41;;;24.49;60.90
38558;BME280;24333;42.626;23.308;2022-09-09T10:42:51;92555.13;;;24.43;58.22
38558;BME280;24333;42.626;23.308;2022-09-09T10:45:21;92548.38;;;24.53;58.62
38558;BME280;24333;42.626;23.308;2022-09-09T10:53:29;92545.72;;;24.81;62.68
38558;BME280;24333;42.626;23.308;2022-09-09T10:56:01;92545.44;;;24.89;61.81
38558;BME280;24333;42.626;23.308;2022-09-09T11:01:14;92539.09;;;24.88;62.99
38558;BME280;24333;42.626;23.308;2022-09-09T11:03:43;92540.78;;;24.86;64.43
38558;BME280;24333;42.626;23.308;2022-09-09T11:06:17;92539.22;;;24.75;63.12
38558;BME280;24333;42.626;23.308;2022-09-09T11:08:44;92540.75;;;24.76;61.37
38558;BME280;24333;42.626;23.308;2022-09-09T11:11:27;92552.72;;;24.77;59.93
38558;BME280;24333;42.626;23.308;2022-09-09T11:14:08;92543.63;;;24.63;59.46
38558;BME280;24333;42.626;23.308;2022-09-09T11:16:47;92547.69;;;24.72;60.82
38558;BME280;24333;42.626;23.308;2022-09-09T11:19:34;92542.50;;;24.83;59.57
38558;BME280;24333;42.626;23.308;2022-09-09T11:22:05;92537.75;;;24.93;60.32
38558;BME280;24333;42.626;23.308;2022-09-09T11:24:39;92530.47;;;25.05;60.61
38558;BME280;24333;42.626;23.308;2022-09-09T11:27:23;92527.91;;;25.29;60.68
38558;BME280;24333;42.626;23.308;2022-09-09T11:30:14;92520.06;;;25.46;59.49
38558;BME280;24333;42.626;23.308;2022-09-09T11:38:32;92500.09;;;25.07;59.83
38558;BME280;24333;42.626;23.308;2022-09-09T11:41:05;92497.53;;;25.31;60.62
38558;BME280;24333;42.626;23.308;2022-09-09T11:43:42;92501.91;;;25.51;59.51
38558;BME280;24333;42.626;23.308;2022-09-09T11:46:10;92478.94;;;25.56;57.79
38558;BME280;24333;42.626;23.308;2022-09-09T11:48:42;92461.56;;;25.33;58.26
38558;BME280;24333;42.626;23.308;2022-09-09T11:51:26;92439.53;;;25.26;57.86
38558;BME280;24333;42.626;23.308;2022-09-09T11:56:28;92447.78;;;25.20;57.82
38558;BME280;24333;42.626;23.308;2022-09-09T11:59:18;92459.06;;;24.98;57.60
38558;BME280;24333;42.626;23.308;2022-09-09T12:01:45;92473.63;;;25.02;58.81
38558;BME280;24333;42.626;23.308;2022-09-09T12:04:38;92464.97;;;25.28;60.63
38558;BME280;24333;42.626;23.308;2022-09-09T12:09:57;92460.66;;;25.55;62.44
38558;BME280;24333;42.626;23.308;2022-09-09T12:12:33;92449.50;;;25.64;60.90
38558;BME280;24333;42.626;23.308;2022-09-09T12:17:31;92448.09;;;25.69;59.20
38558;BME280;24333;42.626;23.308;2022-09-09T12:25:47;92442.59;;;26.12;59.10
38558;BME280;24333;42.626;23.308;2022-09-09T12:28:19;92442.78;;;26.18;56.23
38558;BME280;24333;42.626;23.308;2022-09-09T12:30:52;92436.41;;;26.17;58.30
38558;BME280;24333;42.626;23.308;2022-09-09T12:33:21;92440.13;;;26.05;58.60
38558;BME280;24333;42.626;23.308;2022-09-09T12:35:57;92426.81;;;26.00;59.56
38558;BME280;24333;42.626;23.308;2022-09-09T12:38:37;92422.75;;;26.01;59.98
38558;BME280;24333;42.626;23.308;2022-09-09T12:41:03;92424.78;;;26.00;59.42
38558;BME280;24333;42.626;23.308;2022-09-09T12:43:29;92421.53;;;26.02;58.71
38558;BME280;24333;42.626;23.308;2022-09-09T12:46:01;92429.88;;;26.11;58.73
38558;BME280;24333;42.626;23.308;2022-09-09T12:48:37;92429.88;;;26.11;59.76
38558;BME280;24333;42.626;23.308;2022-09-09T12:51:16;92419.72;;;25.61;59.52
38558;BME280;24333;42.626;23.308;2022-09-09T12:53:44;92429.03;;;25.49;60.29
38558;BME280;24333;42.626;23.308;2022-09-09T12:56:19;92416.31;;;25.38;59.86
38558;BME280;24333;42.626;23.308;2022-09-09T12:58:47;92394.44;;;25.65;61.21
38558;BME280;24333;42.626;23.308;2022-09-09T13:03:47;92398.91;;;25.81;60.80
38558;BME280;24333;42.626;23.308;2022-09-09T13:06:27;92403.28;;;25.73;60.19
38558;BME280;24333;42.626;23.308;2022-09-09T13:08:54;92403.13;;;25.67;59.69
38558;BME280;24333;42.626;23.308;2022-09-09T13:11:35;92401.56;;;25.75;61.63
38558;BME280;24333;42.626;23.308;2022-09-09T13:14:02;92387.75;;;25.81;61.17
38558;BME280;24333;42.626;23.308;2022-09-09T13:16:30;92400.59;;;25.97;61.44
38558;BME280;24333;42.626;23.308;2022-09-09T13:18:58;92394.09;;;25.91;60.07
38558;BME280;24333;42.626;23.308;2022-09-09T13:21:35;92372.56;;;25.73;59.60
38558;BME280;24333;42.626;23.308;2022-09-09T13:24:01;92390.53;;;25.81;60.43
38558;BME280;24333;42.626;23.308;2022-09-09T13:26:29;92379.66;;;25.83;60.53
38558;BME280;24333;42.626;23.308;2022-09-09T13:29:09;92377.19;;;25.85;60.01
38558;BME280;24333;42.626;23.308;2022-09-09T13:31:42;92371.78;;;25.81;59.93
38558;BME280;24333;42.626;23.308;2022-09-09T13:34:27;92378.91;;;25.82;62.00
38558;BME280;24333;42.626;23.308;2022-09-09T13:37:00;92363.56;;;25.78;61.49
38558;BME280;24333;42.626;23.308;2022-09-09T13:39:32;92368.03;;;25.84;62.69
38558;BME280;24333;42.626;23.308;2022-09-09T13:41:58;92372.25;;;25.80;62.16
38558;BME280;24333;42.626;23.308;2022-09-09T13:44:30;92366.19;;;25.81;61.62
38558;BME280;24333;42.626;23.308;2022-09-09T13:47:21;92351.09;;;25.88;62.67
38558;BME280;24333;42.626;23.308;2022-09-09T13:49:48;92352.50;;;25.93;60.71
38558;BME280;24333;42.626;23.308;2022-09-09T13:52:16;92357.75;;;26.00;60.30
38558;BME280;24333;42.626;23.308;2022-09-09T13:54:47;92350.72;;;26.14;60.36
38558;BME280;24333;42.626;23.308;2022-09-09T13:57:18;92351.94;;;26.22;58.48
38558;BME280;24333;42.626;23.308;2022-09-09T13:59:46;92351.47;;;26.24;57.87
38558;BME280;24333;42.626;23.308;2022-09-09T14:02:12;92347.25;;;26.29;58.04
38558;BME280;24333;42.626;23.308;2022-09-09T14:04:37;92359.97;;;26.30;56.69
38558;BME280;24333;42.626;23.308;2022-09-09T14:07:03;92359.56;;;26.12;55.79
38558;BME280;24333;42.626;23.308;2022-09-09T14:09:28;92361.88;;;26.14;57.16
38558;BME280;24333;42.626;23.308;2022-09-09T14:11:54;92365.31;;;26.09;57.57
38558;BME280;24333;42.626;23.308;2022-09-09T14:14:20;92355.84;;;26.06;57.72
38558;BME280;24333;42.626;23.308;2022-09-09T14:16:46;92349.81;;;25.98;58.03
38558;BME280;24333;42.626;23.308;2022-09-09T14:19:11;92355.00;;;25.91;58.67
38558;BME280;24333;42.626;23.308;2022-09-09T14:21:37;92354.88;;;25.76;59.64
38558;BME280;24333;42.626;23.308;2022-09-09T14:24:02;92353.19;;;25.69;61.84
38558;BME280;24333;42.626;23.308;2022-09-09T14:26:28;92342.19;;;25.56;62.91
38558;BME280;24333;42.626;23.308;2022-09-09T14:28:54;92348.41;;;25.51;63.05
38558;BME280;24333;42.626;23.308;2022-09-09T14:31:20;92346.38;;;25.42;63.74
38558;BME280;24333;42.626;23.308;2022-09-09T14:33:46;92349.50;;;25.35;61.80
38558;BME280;24333;42.626;23.308;2022-09-09T14:36:11;92347.03;;;25.27;62.56
38558;BME280;24333;42.626;23.308;2022-09-09T14:38:38;92336.81;;;25.15;63.46
38558;BME280;24333;42.626;23.308;2022-09-09T14:41:09;92331.41;;;25.02;64.50
38558;BME280;24333;42.626;23.308;2022-09-09T14:43:35;92321.28;;;24.58;65.52
38558;BME280;24333;42.626;23.308;2022-09-09T14:46:08;92325.44;;;24.53;66.65
38558;BME280;24333;42.626;23.308;2022-09-09T14:48:34;92335.66;;;24.47;69.01
38558;BME280;24333;42.626;23.308;2022-09-09T14:51:11;92334.09;;;24.46;69.43
38558;BME280;24333;42.626;23.308;2022-09-09T14:53:38;92329.13;;;24.32;67.10
38558;BME280;24333;42.626;23.308;2022-09-09T14:56:10;92336.69;;;24.22;67.68
38558;BME280;24333;42.626;23.308;2022-09-09T14:58:37;92354.59;;;24.11;69.31
38558;BME280;24333;42.626;23.308;2022-09-09T15:01:14;92346.66;;;24.01;73.80
38558;BME280;24333;42.626;23.308;2022-09-09T15:03:42;92344.28;;;23.90;76.58
38558;BME280;24333;42.626;23.308;2022-09-09T15:06:13;92355.38;;;23.80;80.62
38558;BME280;24333;42.626;23.308;2022-09-09T15:08:41;92360.66;;;23.56;87.71
38558;BME280;24333;42.626;23.308;2022-09-09T15:11:08;92364.22;;;23.34;87.75
38558;BME280;24333;42.626;23.308;2022-09-09T15:13:38;92365.97;;;23.19;88.50
38558;BME280;24333;42.626;23.308;2022-09-09T15:16:09;92357.03;;;23.02;90.81
38558;BME280;24333;42.626;23.308;2022-09-09T15:18:35;92361.09;;;22.88;92.23
38558;BME280;24333;42.626;23.308;2022-09-09T15:21:04;92355.00;;;22.80;93.48
38558;BME280;24333;42.626;23.308;2022-09-09T15:23:36;92352.91;;;22.71;96.48
38558;BME280;24333;42.626;23.308;2022-09-09T15:26:02;92355.03;;;22.67;100.00
38558;BME280;24333;42.626;23.308;2022-09-09T15:28:29;92360.63;;;22.54;100.00
38558;BME280;24333;42.626;23.308;2022-09-09T15:30:56;92353.66;;;22.49;100.00
38558;BME280;24333;42.626;23.308;2022-09-09T15:33:22;92342.72;;;22.42;100.00
38558;BME280;24333;42.626;23.308;2022-09-09T15:35:47;92338.38;;;22.41;100.00